Detall de PIREP

Printer-friendly versionPDF version

[2013/01/07 14:19:00]
Flight IATA:CT1005
Pilot Number:011
Company ICAO:CAT
Aircraft Type:F28/A
PAX:85
Departing Airport: LCPH
Destination Airport: LGPZ
Alternate Airport:LGAD
Online: VATSIM
Route:TOBAL UW195 DASNI UM601 RDS UL995 ATV UN604 KOR UL53 GARTA
Flight Level:F320
No Slew and time accel
No pause
Crash detect
Detect pilot in Cockpit between each 30 and 45 minutes
14:19 Zero fuel Weight: 59156 Lbs, Fuel Weight: 13716 Lbs
14:19 VATSIM:LCPH 071400Z 30025KT 9999 BKN025 FEW030TCU 14/06 Q1004
14:19 VATSIM:LGPZ 071350Z 24005KT 9999 FEW040 13/04 Q1012 NOSIG
14:21 Parking Brakes off
14:34 Take-off
14:34 Take off Weight: 72302 Lbs
14:34 Wind: 296º @ 025 Knots Heading: 292º
14:34 POS N34º 43´ 07´´ E032º 29´ 12´´
14:34 Flaps:3 at 149 Knots
14:34 Gear Up: 152 Knots
14:37 Flaps:2 at 201 Knots
14:37 Flaps:1 at 230 Knots
14:37 Flaps:0 at 231 Knots
14:49 Wind:289º@082 Knots Heading: 302º Ground Speed: 274 Knots Altitude 25072 ft
14:58 TOC
14:58 Fuel Weight: 10507 Lb
15:57 TOD
15:57 Fuel Weight: 6194 Lb
16:04 Wind:352º@024 Knots Heading: 308º Ground Speed: 383 Knots Altitude 23202 ft
16:19 Wind:338º@012 Knots Heading: 303º Ground Speed: 234 Knots Altitude 4858 ft
16:20 Flaps:1 at 227 Knots
16:20 Flaps:2 at 223 Knots
16:20 Flaps:3 at 198 Knots
16:20 Flaps:4 at 196 Knots
16:20 Gear Down: 193 Knots
16:21 Flaps:5 at 158 Knots
16:22 TouchDown:Rate -338 ft/min Speed: 124 Knots
16:22 VATSIM:LGPZ 071550Z 34006KT 9999 FEW035 11/00 Q1012 NOSIG
16:22 Land
16:22 Wind:337º@006 Knots
16:22 Heading: 250º
16:22 Flight Duration: 01:48
16:22 Landing Weight: 64295 Lbs
16:22 POS N38º 55´ 54´´ E020º 45´ 45´´
16:24 Parking brakes on
16:24 Block to Block Duration: 02:03
16:24 Final Fuel: 5037 Lbls
16:24 Spent Fuel: 8679 Lbls
16:24 FlightLength: 107 NM
16:24 TOD Land Length: 49 NM

Exportar CSV

Powered by Drupal - Modified by Danger4k